Time;durP1;ratioP1;P1;durP2;ratioP2;P2;SDS_P1;SDS_P2;PMS_P1;PMS_P2;Temp;Humidity;BMP_temperature;BMP_pressure;BME280_temperature;BME280_humidity;BME280_pressure;Samples;Min_cycle;Max_cycle;Signal;HPM_P1;HPM_P2
2022/06/26 00:00:10;;;;;;;11.05;9.23;;;20.30;78.60;;;;;;5113989;28;20067;-69
2022/06/26 00:02:36;;;;;;;12.27;9.00;;;20.40;78.30;;;;;;5113972;28;20019;-69
2022/06/26 00:05:03;;;;;;;12.88;9.52;;;20.40;78.40;;;;;;5113936;28;20115;-70
2022/06/26 00:07:29;;;;;;;11.30;9.65;;;20.20;78.60;;;;;;5113889;28;20020;-69
2022/06/26 00:09:54;;;;;;;17.25;8.90;;;20.30;78.70;;;;;;5113788;28;20066;-69
2022/06/26 00:12:20;;;;;;;12.52;9.70;;;20.30;78.20;;;;;;5113836;28;20032;-69
2022/06/26 00:14:45;;;;;;;13.15;9.68;;;20.30;78.40;;;;;;5113886;28;20028;-69
2022/06/26 00:17:11;;;;;;;13.55;10.00;;;20.30;78.40;;;;;;5113734;28;20043;-70
2022/06/26 00:19:37;;;;;;;14.43;10.65;;;20.20;80.10;;;;;;5113860;28;20047;-69
2022/06/26 00:22:05;;;;;;;16.33;10.25;;;20.20;79.40;;;;;;5113665;28;20032;-69
2022/06/26 00:24:33;;;;;;;11.68;9.52;;;20.20;79.50;;;;;;5113650;28;20032;-67
2022/06/26 00:26:58;;;;;;;12.70;9.57;;;20.30;79.20;;;;;;5095871;28;20024;-67
2022/06/26 00:29:24;;;;;;;12.18;9.65;;;20.30;78.90;;;;;;5113301;28;20070;-69
2022/06/26 00:31:49;;;;;;;15.15;11.27;;;20.30;78.60;;;;;;5113539;28;20058;-70
2022/06/26 00:34:15;;;;;;;14.48;10.65;;;20.30;78.70;;;;;;5113515;28;20080;-69
2022/06/26 00:36:42;;;;;;;16.35;12.05;;;20.20;79.10;;;;;;5113631;28;20034;-69
2022/06/26 00:39:07;;;;;;;18.63;12.40;;;20.20;79.30;;;;;;5113532;28;20032;-70
2022/06/26 00:41:33;;;;;;;15.23;11.88;;;20.20;79.40;;;;;;5113551;28;20032;-69
2022/06/26 00:43:59;;;;;;;13.80;11.25;;;20.30;79.30;;;;;;5113541;28;20028;-69
2022/06/26 00:46:25;;;;;;;14.32;10.93;;;20.30;79.20;;;;;;5113433;28;20028;-69
2022/06/26 00:48:52;;;;;;;15.48;11.52;;;20.30;79.70;;;;;;5095498;28;20062;-70
2022/06/26 00:51:19;;;;;;;13.77;9.82;;;20.30;79.00;;;;;;5113318;28;20027;-70
2022/06/26 00:53:45;;;;;;;14.75;10.32;;;20.20;79.00;;;;;;5113327;28;20016;-70
2022/06/26 00:56:11;;;;;;;11.50;9.45;;;20.20;79.10;;;;;;5113303;28;20026;-69
2022/06/26 00:58:37;;;;;;;13.38;10.40;;;20.10;79.30;;;;;;5113288;28;20491;-69
2022/06/26 01:01:02;;;;;;;14.20;9.93;;;20.00;79.40;;;;;;5095699;28;20036;-69
2022/06/26 01:03:28;;;;;;;11.80;9.60;;;20.00;79.70;;;;;;5117419;28;20036;-70
2022/06/26 01:05:54;;;;;;;14.50;10.05;;;19.80;80.00;;;;;;5117488;28;20028;-69
2022/06/26 01:08:20;;;;;;;15.43;9.55;;;19.70;80.70;;;;;;5117229;28;20094;-70
2022/06/26 01:10:48;;;;;;;12.75;10.32;;;19.60;81.20;;;;;;5117215;28;20095;-70
2022/06/26 01:13:15;;;;;;;14.68;9.75;;;19.60;81.40;;;;;;5117171;28;20020;-69
2022/06/26 01:15:41;;;;;;;13.95;10.60;;;19.60;81.40;;;;;;5117179;28;20025;-70
2022/06/26 01:18:07;;;;;;;13.27;10.52;;;19.50;81.60;;;;;;5117119;28;20016;-70
2022/06/26 01:20:33;;;;;;;14.57;10.75;;;19.60;81.80;;;;;;5117155;28;20046;-70
2022/06/26 01:23:04;;;;;;;14.18;10.77;;;19.60;81.60;;;;;;5117022;28;20033;-70
2022/06/26 01:26:02;;;;;;;14.27;10.88;;;19.70;81.30;;;;;;5117023;28;20021;-69
2022/06/26 01:28:28;;;;;;;13.13;9.82;;;19.70;80.80;;;;;;5065758;28;20107;-70
2022/06/26 01:30:53;;;;;;;14.20;10.60;;;19.80;81.00;;;;;;5116914;28;20410;-70
2022/06/26 01:33:19;;;;;;;13.73;10.55;;;19.80;81.00;;;;;;5098925;28;20035;-69
2022/06/26 01:35:45;;;;;;;13.00;10.48;;;19.90;80.60;;;;;;5116751;28;20044;-70
2022/06/26 01:38:15;;;;;;;13.93;10.48;;;19.90;80.30;;;;;;5116744;28;20024;-70
2022/06/26 01:40:42;;;;;;;14.32;10.45;;;19.90;80.30;;;;;;5116776;28;20027;-70
2022/06/26 01:43:08;;;;;;;15.55;10.52;;;19.80;80.10;;;;;;5116646;28;20028;-69
2022/06/26 01:45:43;;;;;;;12.82;10.55;;;19.80;80.20;;;;;;5116578;28;20024;-70
2022/06/26 01:48:09;;;;;;;14.68;10.02;;;19.80;80.10;;;;;;5098559;28;20016;-70
2022/06/26 01:50:35;;;;;;;13.27;10.52;;;19.80;80.10;;;;;;5116632;28;20024;-70
2022/06/26 01:53:00;;;;;;;13.27;10.63;;;19.80;80.10;;;;;;5098691;28;20046;-70
2022/06/26 01:55:26;;;;;;;16.17;10.13;;;19.80;80.00;;;;;;5116421;28;20032;-70
2022/06/26 01:57:51;;;;;;;13.30;10.32;;;19.80;79.90;;;;;;5116366;28;20024;-70
2022/06/26 02:00:17;;;;;;;13.52;10.50;;;19.80;80.00;;;;;;5116309;28;20060;-70
2022/06/26 02:02:43;;;;;;;13.70;10.68;;;19.70;79.80;;;;;;5116293;28;20017;-70
2022/06/26 02:05:08;;;;;;;15.05;11.05;;;19.70;80.00;;;;;;5116233;28;20083;-70
2022/06/26 02:07:34;;;;;;;13.77;10.68;;;19.60;80.10;;;;;;5116159;28;20038;-70
2022/06/26 02:15:28;;;;;;;14.02;10.43;;;19.60;79.80;;;;;;5116192;28;20116;-70
2022/06/26 02:17:55;;;;;;;14.82;11.00;;;19.50;80.00;;;;;;5116009;28;20032;-70
2022/06/26 02:20:21;;;;;;;14.18;10.75;;;19.40;80.20;;;;;;5115924;28;20024;-70
2022/06/26 02:22:46;;;;;;;14.15;10.27;;;19.50;80.30;;;;;;5115864;28;20032;-70
2022/06/26 02:25:12;;;;;;;14.25;10.07;;;19.50;80.30;;;;;;5115839;28;20047;-70
2022/06/26 02:27:38;;;;;;;16.63;11.23;;;19.40;80.40;;;;;;5115611;28;20024;-71
2022/06/26 02:30:04;;;;;;;12.63;9.98;;;19.40;80.50;;;;;;5115603;28;20030;-70
2022/06/26 02:32:30;;;;;;;13.48;10.65;;;19.40;80.70;;;;;;5097833;28;20035;-70
2022/06/26 02:34:56;;;;;;;15.05;10.48;;;19.40;80.90;;;;;;5115685;28;20104;-70
2022/06/26 02:37:21;;;;;;;15.20;11.25;;;19.40;80.80;;;;;;5115628;28;20474;-70
2022/06/26 02:39:47;;;;;;;17.27;11.18;;;19.30;81.20;;;;;;5115590;28;20032;-70
2022/06/26 02:42:13;;;;;;;14.95;11.27;;;19.30;81.60;;;;;;5115482;28;20035;-70
2022/06/26 02:44:38;;;;;;;15.57;11.80;;;19.30;81.70;;;;;;5115595;28;20028;-70
2022/06/26 02:47:04;;;;;;;19.13;12.23;;;19.30;81.70;;;;;;5115459;28;20059;-70
2022/06/26 02:49:29;;;;;;;15.60;11.57;;;19.20;81.60;;;;;;5115325;28;20037;-70
2022/06/26 02:51:55;;;;;;;19.25;12.00;;;19.20;81.80;;;;;;5115303;28;20028;-70
2022/06/26 02:54:21;;;;;;;17.45;12.10;;;19.20;81.80;;;;;;5115309;28;20028;-69
2022/06/26 02:56:47;;;;;;;17.75;12.07;;;19.10;81.80;;;;;;5115282;28;20028;-69
2022/06/26 02:59:12;;;;;;;17.08;11.80;;;19.10;82.30;;;;;;5115189;28;20027;-70
2022/06/26 03:01:38;;;;;;;17.30;13.00;;;19.00;82.40;;;;;;5115161;28;20028;-69
2022/06/26 03:04:05;;;;;;;20.50;13.00;;;19.00;82.30;;;;;;5115120;28;20051;-70
2022/06/26 03:06:31;;;;;;;18.15;12.80;;;19.00;82.50;;;;;;5115071;28;20087;-70
2022/06/26 03:08:57;;;;;;;22.20;13.48;;;18.90;82.40;;;;;;5115016;28;20084;-69
2022/06/26 03:11:22;;;;;;;18.90;13.57;;;18.90;82.40;;;;;;5114971;28;20084;-70
2022/06/26 03:13:48;;;;;;;19.80;12.65;;;18.90;82.50;;;;;;5115087;28;20044;-69
2022/06/26 03:16:13;;;;;;;21.83;13.70;;;18.90;82.50;;;;;;5114871;28;20106;-70
2022/06/26 03:18:39;;;;;;;20.98;13.88;;;18.90;82.40;;;;;;5114836;28;20036;-69
2022/06/26 03:21:06;;;;;;;22.90;13.60;;;18.90;82.20;;;;;;5114810;28;20059;-70
2022/06/26 03:26:16;;;;;;;22.10;13.23;;;18.80;82.40;;;;;;5114875;28;20043;-69
2022/06/26 03:28:42;;;;;;;21.67;13.45;;;18.80;82.50;;;;;;5114333;28;20048;-69
2022/06/26 03:31:07;;;;;;;20.38;13.50;;;18.80;82.80;;;;;;5114604;28;20471;-70
2022/06/26 03:33:33;;;;;;;20.08;12.98;;;18.80;82.70;;;;;;5114574;28;20046;-70
2022/06/26 03:35:59;;;;;;;22.05;13.40;;;18.80;82.90;;;;;;5114490;28;20036;-70
2022/06/26 03:38:24;;;;;;;23.42;13.50;;;18.90;82.90;;;;;;5096649;28;20031;-69
2022/06/26 03:40:50;;;;;;;20.73;13.48;;;18.80;82.70;;;;;;5114414;28;20103;-69
2022/06/26 03:43:15;;;;;;;21.17;13.20;;;18.90;82.60;;;;;;5114502;28;20044;-70
2022/06/26 03:45:41;;;;;;;22.10;13.40;;;18.80;82.60;;;;;;5114349;28;20100;-70
2022/06/26 03:48:08;;;;;;;21.52;13.32;;;18.80;82.70;;;;;;5114315;28;20027;-69
2022/06/26 03:50:33;;;;;;;21.75;13.32;;;18.80;82.60;;;;;;5114194;28;20027;-70
2022/06/26 03:52:59;;;;;;;19.35;13.50;;;18.80;82.60;;;;;;5114340;28;20020;-69
2022/06/26 03:55:25;;;;;;;21.02;13.27;;;18.80;82.40;;;;;;5114162;28;20012;-70
2022/06/26 03:57:50;;;;;;;21.77;14.20;;;18.80;82.60;;;;;;5114098;28;20459;-69
2022/06/26 04:00:17;;;;;;;17.42;11.32;;;18.70;82.70;;;;;;5114095;28;20043;-69
2022/06/26 04:02:43;;;;;;;17.52;10.07;;;18.70;82.30;;;;;;5114045;28;20098;-69
2022/06/26 04:05:09;;;;;;;14.63;9.32;;;18.60;82.50;;;;;;5114024;28;20028;-69
2022/06/26 04:07:35;;;;;;;11.98;8.27;;;18.50;80.80;;;;;;5113940;28;20384;-69
2022/06/26 04:10:00;;;;;;;14.05;8.27;;;18.40;80.40;;;;;;5113851;28;20095;-69
2022/06/26 04:12:26;;;;;;;12.15;7.70;;;18.40;80.30;;;;;;5113908;28;20054;-69
2022/06/26 04:14:52;;;;;;;13.18;8.02;;;18.30;80.00;;;;;;5113864;28;20463;-69
2022/06/26 04:17:17;;;;;;;12.73;8.05;;;18.30;80.10;;;;;;5113918;28;20024;-69
2022/06/26 04:19:43;;;;;;;13.18;7.85;;;18.30;80.00;;;;;;5113792;28;20028;-69
2022/06/26 04:22:09;;;;;;;14.88;7.95;;;18.30;80.10;;;;;;5113734;28;20036;-69
2022/06/26 04:24:34;;;;;;;12.98;8.80;;;18.30;80.20;;;;;;5113713;28;20024;-69
2022/06/26 04:27:00;;;;;;;12.48;8.25;;;18.30;81.20;;;;;;5095728;28;20503;-69
2022/06/26 04:29:26;;;;;;;13.32;9.00;;;18.30;80.20;;;;;;5113355;28;20059;-69
2022/06/26 04:31:52;;;;;;;16.58;8.65;;;18.30;80.40;;;;;;5113575;28;20447;-69
2022/06/26 04:34:18;;;;;;;16.05;9.80;;;18.30;80.30;;;;;;5113588;28;20099;-69
2022/06/26 04:36:43;;;;;;;13.50;8.80;;;18.40;80.50;;;;;;5113122;28;20036;-70
2022/06/26 04:39:09;;;;;;;16.60;9.52;;;18.40;80.40;;;;;;5113554;28;20024;-69
2022/06/26 04:41:35;;;;;;;16.45;9.95;;;18.40;80.30;;;;;;5113483;28;20032;-69
2022/06/26 04:44:12;;;;;;;16.38;9.75;;;18.30;80.40;;;;;;5113491;28;20024;-69
2022/06/26 04:46:40;;;;;;;16.02;9.52;;;18.30;80.80;;;;;;5113500;28;20031;-69
2022/06/26 04:49:06;;;;;;;14.20;9.70;;;18.30;80.90;;;;;;5113382;28;20038;-69
2022/06/26 04:51:35;;;;;;;19.25;10.07;;;18.30;80.90;;;;;;5113412;28;20036;-69
2022/06/26 04:54:02;;;;;;;17.35;10.10;;;18.30;81.00;;;;;;5113494;28;20013;-69
2022/06/26 04:56:28;;;;;;;17.02;10.30;;;18.30;81.20;;;;;;5113373;28;20048;-69
2022/06/26 04:58:54;;;;;;;17.10;10.25;;;18.30;81.20;;;;;;5113375;28;20028;-69
2022/06/26 05:01:20;;;;;;;15.07;9.85;;;18.30;81.20;;;;;;5095383;28;20032;-69
2022/06/26 05:03:46;;;;;;;16.85;9.93;;;18.30;81.20;;;;;;5095361;28;20045;-70
2022/06/26 05:06:11;;;;;;;15.73;8.75;;;18.30;81.30;;;;;;5113412;28;20092;-69
2022/06/26 05:08:37;;;;;;;13.82;8.63;;;18.30;81.40;;;;;;5095333;28;20028;-70
2022/06/26 05:11:04;;;;;;;15.13;9.48;;;18.30;81.20;;;;;;5113205;28;20040;-69
2022/06/26 05:13:30;;;;;;;17.25;8.57;;;18.30;81.20;;;;;;5113250;28;20027;-69
2022/06/26 05:15:57;;;;;;;16.02;7.97;;;18.30;81.30;;;;;;5113300;28;20084;-69
2022/06/26 05:18:23;;;;;;;13.30;7.43;;;18.30;81.00;;;;;;5113150;28;20039;-69
2022/06/26 05:20:48;;;;;;;12.55;7.82;;;18.20;81.00;;;;;;5095209;28;20023;-69
2022/06/26 05:23:14;;;;;;;12.77;6.93;;;18.20;80.90;;;;;;5112987;28;20028;-70
2022/06/26 05:25:40;;;;;;;12.77;7.28;;;18.20;81.10;;;;;;5113069;28;20016;-69
2022/06/26 05:28:06;;;;;;;12.20;6.93;;;18.20;81.30;;;;;;5112817;28;20048;-70
2022/06/26 05:30:32;;;;;;;12.25;7.03;;;18.20;81.20;;;;;;5112934;28;20036;-70
2022/06/26 05:32:58;;;;;;;12.13;6.97;;;18.20;81.20;;;;;;5113160;28;20092;-69
2022/06/26 05:35:23;;;;;;;12.95;7.78;;;18.10;81.00;;;;;;5112982;28;20038;-69
2022/06/26 05:37:49;;;;;;;12.13;6.93;;;18.10;81.30;;;;;;5112972;28;20498;-69
2022/06/26 05:40:14;;;;;;;11.75;7.20;;;18.20;81.40;;;;;;5112939;28;20035;-70
2022/06/26 05:42:40;;;;;;;12.65;6.50;;;18.20;81.00;;;;;;5112942;28;20036;-69
2022/06/26 05:45:06;;;;;;;12.27;6.20;;;18.20;81.20;;;;;;5112921;28;20032;-69
2022/06/26 05:47:32;;;;;;;11.50;6.32;;;18.10;80.30;;;;;;5112907;28;20021;-69
2022/06/26 05:49:57;;;;;;;11.40;6.40;;;18.10;80.50;;;;;;5116006;28;20043;-69
2022/06/26 05:52:23;;;;;;;11.13;6.40;;;18.10;80.90;;;;;;5116669;28;20028;-69
2022/06/26 05:54:49;;;;;;;10.05;6.53;;;18.20;81.20;;;;;;5116475;28;20088;-69
2022/06/26 05:57:14;;;;;;;11.73;6.45;;;18.20;81.20;;;;;;5116419;28;20066;-69
2022/06/26 05:59:40;;;;;;;11.80;6.43;;;18.20;80.90;;;;;;5116555;28;20039;-69
2022/06/26 06:02:06;;;;;;;12.93;6.47;;;18.20;81.00;;;;;;5116315;28;20032;-69
2022/06/26 06:04:33;;;;;;;11.73;6.90;;;18.20;80.80;;;;;;5116458;28;20028;-69
2022/06/26 06:06:58;;;;;;;9.93;6.05;;;18.20;81.00;;;;;;5116263;28;20028;-69
2022/06/26 06:09:24;;;;;;;12.80;6.53;;;18.20;80.20;;;;;;5116146;28;20032;-69
2022/06/26 06:11:50;;;;;;;10.80;6.20;;;18.20;80.60;;;;;;5116183;28;20025;-69
2022/06/26 06:14:15;;;;;;;9.38;5.85;;;18.30;80.80;;;;;;5116064;28;20035;-69
2022/06/26 06:16:41;;;;;;;10.73;6.50;;;18.20;80.70;;;;;;5116054;28;20021;-69
2022/06/26 06:19:06;;;;;;;10.63;5.88;;;18.20;80.20;;;;;;5115973;28;20032;-69
2022/06/26 06:21:32;;;;;;;11.88;6.47;;;18.30;80.70;;;;;;5115961;28;20046;-69
2022/06/26 06:23:58;;;;;;;10.55;6.32;;;18.30;80.70;;;;;;5115911;28;20391;-69
2022/06/26 06:26:25;;;;;;;11.20;6.38;;;18.40;80.40;;;;;;5115807;28;20036;-69
2022/06/26 06:28:50;;;;;;;12.13;6.57;;;18.50;80.80;;;;;;5115506;28;20044;-69
2022/06/26 06:31:16;;;;;;;9.95;6.32;;;18.50;81.00;;;;;;5115740;28;20442;-69
2022/06/26 06:33:42;;;;;;;11.13;6.15;;;18.50;79.70;;;;;;5115742;28;20017;-69
2022/06/26 06:36:08;;;;;;;12.18;7.00;;;18.50;80.20;;;;;;5115650;28;20028;-69
2022/06/26 06:38:34;;;;;;;12.00;6.90;;;18.50;79.60;;;;;;5115698;28;20024;-69
2022/06/26 06:41:00;;;;;;;11.70;6.18;;;18.60;79.30;;;;;;5115517;28;20019;-69
2022/06/26 06:43:25;;;;;;;14.18;6.55;;;18.60;78.70;;;;;;5097636;28;20030;-69
2022/06/26 06:45:51;;;;;;;11.27;6.72;;;18.70;78.70;;;;;;5115368;28;20028;-69
2022/06/26 06:48:17;;;;;;;9.23;6.18;;;18.70;79.00;;;;;;5115430;28;20031;-69
2022/06/26 06:50:42;;;;;;;12.68;6.10;;;18.80;78.80;;;;;;5115366;28;20058;-70
2022/06/26 06:53:08;;;;;;;10.75;6.82;;;18.80;78.40;;;;;;5115013;28;20036;-69
2022/06/26 06:55:34;;;;;;;10.60;6.10;;;18.90;79.30;;;;;;5115300;28;20048;-70
2022/06/26 06:58:00;;;;;;;12.80;6.65;;;19.00;78.40;;;;;;5115224;28;20044;-69
2022/06/26 07:00:26;;;;;;;10.55;5.95;;;19.00;77.20;;;;;;5114968;28;20032;-69
2022/06/26 07:02:51;;;;;;;11.65;6.32;;;19.00;77.30;;;;;;5115170;28;20043;-69
2022/06/26 07:05:19;;;;;;;9.90;6.15;;;19.10;77.50;;;;;;5097263;28;20025;-70
2022/06/26 07:07:45;;;;;;;10.07;5.70;;;19.10;77.00;;;;;;5115016;28;20020;-70
2022/06/26 07:10:10;;;;;;;10.40;5.70;;;19.10;77.30;;;;;;5114923;28;20038;-69
2022/06/26 07:12:37;;;;;;;9.75;5.65;;;19.20;76.00;;;;;;5096989;28;20050;-70
2022/06/26 07:15:03;;;;;;;12.00;6.10;;;19.20;75.40;;;;;;5114830;28;20145;-69
2022/06/26 07:17:29;;;;;;;11.10;6.45;;;19.30;76.80;;;;;;5114880;28;20024;-70
2022/06/26 07:19:54;;;;;;;12.27;6.50;;;19.30;77.00;;;;;;5114818;28;20058;-70
2022/06/26 07:22:20;;;;;;;12.90;6.32;;;19.30;75.80;;;;;;5114774;28;20036;-69
2022/06/26 07:24:46;;;;;;;11.77;5.70;;;19.40;75.90;;;;;;5096696;28;20035;-69
2022/06/26 07:27:12;;;;;;;11.05;7.10;;;19.40;76.20;;;;;;5114716;28;20036;-70
2022/06/26 07:29:38;;;;;;;10.70;6.45;;;19.50;75.80;;;;;;5096276;28;20051;-70
2022/06/26 07:32:04;;;;;;;10.38;5.80;;;19.50;75.40;;;;;;5114538;28;20020;-69
2022/06/26 07:34:30;;;;;;;11.88;6.88;;;19.60;76.30;;;;;;5114642;28;20106;-69
2022/06/26 07:36:56;;;;;;;10.63;5.90;;;19.70;76.70;;;;;;5114506;28;20016;-69
2022/06/26 07:39:21;;;;;;;10.73;4.90;;;19.70;75.90;;;;;;5114372;28;20080;-69
2022/06/26 07:41:49;;;;;;;7.65;4.50;;;19.70;75.30;;;;;;5114370;28;20035;-69
2022/06/26 07:44:14;;;;;;;6.40;3.60;;;19.70;74.60;;;;;;5114320;28;20043;-69
2022/06/26 07:46:41;;;;;;;8.45;4.43;;;19.70;72.30;;;;;;5114263;28;20051;-69
2022/06/26 07:49:08;;;;;;;10.88;4.68;;;19.80;73.80;;;;;;5114233;28;20028;-69
2022/06/26 07:51:34;;;;;;;9.32;4.75;;;19.80;74.30;;;;;;5096344;28;20032;-69
2022/06/26 07:54:01;;;;;;;9.13;4.38;;;19.80;74.00;;;;;;5114174;28;20046;-69
2022/06/26 07:56:27;;;;;;;9.50;4.55;;;19.90;73.50;;;;;;5114138;28;20021;-70
2022/06/26 07:58:54;;;;;;;11.63;5.55;;;19.90;74.10;;;;;;5114092;28;20031;-69
2022/06/26 08:01:20;;;;;;;8.00;4.55;;;19.90;75.00;;;;;;5114040;28;20016;-69
2022/06/26 08:03:46;;;;;;;8.38;4.60;;;19.90;74.00;;;;;;5113976;28;20043;-69
2022/06/26 08:06:12;;;;;;;8.68;4.50;;;19.90;74.00;;;;;;5113920;28;20024;-70
2022/06/26 08:08:38;;;;;;;9.80;4.03;;;19.80;74.60;;;;;;5113789;28;20024;-69
2022/06/26 08:11:04;;;;;;;8.40;4.72;;;19.80;73.00;;;;;;5113138;28;20083;-70
2022/06/26 08:13:30;;;;;;;9.77;4.72;;;19.90;72.70;;;;;;5113844;28;20020;-69
2022/06/26 08:15:56;;;;;;;8.55;4.50;;;20.00;72.50;;;;;;5113805;28;20468;-70
2022/06/26 08:18:22;;;;;;;10.45;4.75;;;19.90;71.10;;;;;;5113919;28;20047;-69
2022/06/26 08:20:47;;;;;;;7.05;4.82;;;19.90;71.70;;;;;;5113742;28;20024;-69
2022/06/26 08:23:13;;;;;;;10.02;5.15;;;19.90;72.50;;;;;;5113620;28;20024;-70
2022/06/26 08:25:40;;;;;;;8.77;5.00;;;20.00;73.20;;;;;;5113650;28;20024;-69
2022/06/26 08:28:06;;;;;;;9.15;5.20;;;20.00;73.20;;;;;;5113340;28;20055;-70
2022/06/26 08:30:32;;;;;;;8.85;5.00;;;20.00;73.70;;;;;;5095872;28;20024;-70
2022/06/26 08:32:59;;;;;;;8.85;4.90;;;20.00;73.50;;;;;;5113576;28;20048;-69
2022/06/26 08:35:26;;;;;;;8.65;4.70;;;20.00;73.10;;;;;;5113474;28;20042;-69
2022/06/26 08:37:53;;;;;;;9.10;5.22;;;20.00;72.20;;;;;;5113546;28;20023;-69
2022/06/26 08:40:18;;;;;;;7.20;4.80;;;20.00;72.60;;;;;;5095554;28;20024;-69
2022/06/26 08:42:49;;;;;;;11.63;4.93;;;19.90;72.90;;;;;;5113457;28;20024;-69
2022/06/26 08:45:17;;;;;;;6.68;4.63;;;20.00;72.60;;;;;;5113468;28;20083;-69
2022/06/26 08:47:46;;;;;;;7.53;5.32;;;19.90;72.40;;;;;;5113533;28;20047;-69
2022/06/26 08:50:12;;;;;;;8.38;4.97;;;20.00;72.30;;;;;;5113356;28;20028;-69
2022/06/26 08:52:40;;;;;;;6.15;4.25;;;20.00;72.80;;;;;;5113361;28;20051;-69
2022/06/26 08:55:06;;;;;;;8.48;4.97;;;20.10;72.70;;;;;;5113299;28;20035;-69
2022/06/26 08:57:33;;;;;;;8.23;4.40;;;20.10;73.30;;;;;;5113327;28;20403;-69
2022/06/26 08:59:59;;;;;;;8.52;4.88;;;20.10;72.00;;;;;;5113283;28;20407;-69
2022/06/26 09:02:25;;;;;;;7.10;4.95;;;20.10;71.60;;;;;;5113273;28;20100;-69
2022/06/26 09:04:51;;;;;;;7.75;5.03;;;20.00;72.00;;;;;;5113348;28;20052;-69
2022/06/26 09:07:18;;;;;;;7.60;4.75;;;20.00;72.10;;;;;;5113371;28;20088;-69
2022/06/26 09:09:44;;;;;;;9.43;4.03;;;20.10;71.80;;;;;;5113181;28;20028;-70
2022/06/26 09:12:09;;;;;;;8.65;4.65;;;20.00;70.70;;;;;;5113189;28;20027;-69
2022/06/26 09:14:35;;;;;;;6.90;4.15;;;20.00;71.30;;;;;;5113172;28;20028;-69
2022/06/26 09:17:01;;;;;;;5.90;3.80;;;19.90;72.10;;;;;;5113299;28;20031;-70
2022/06/26 09:19:33;;;;;;;6.88;3.88;;;19.90;70.90;;;;;;5113125;28;20050;-70
2022/06/26 09:22:12;;;;;;;7.35;4.13;;;20.00;71.40;;;;;;5113420;28;20051;-69
2022/06/26 09:24:50;;;;;;;7.03;4.60;;;20.00;71.70;;;;;;5117037;28;20053;-69
2022/06/26 09:27:16;;;;;;;6.70;4.32;;;20.00;71.50;;;;;;5116999;28;20028;-69
2022/06/26 09:29:48;;;;;;;6.82;4.45;;;20.00;71.10;;;;;;5116590;28;20052;-69
2022/06/26 09:32:15;;;;;;;7.97;4.95;;;20.10;71.80;;;;;;5116961;28;20080;-70
2022/06/26 09:34:49;;;;;;;7.22;4.93;;;20.10;72.60;;;;;;5116883;28;20020;-69
2022/06/26 09:37:15;;;;;;;8.50;5.35;;;20.10;72.00;;;;;;5116857;28;20028;-69
2022/06/26 09:39:42;;;;;;;7.75;5.55;;;20.20;72.00;;;;;;5116738;28;20024;-69
2022/06/26 09:42:21;;;;;;;9.02;5.15;;;20.10;71.80;;;;;;5116880;28;20024;-69
2022/06/26 09:44:52;;;;;;;7.72;4.80;;;20.20;71.80;;;;;;5116661;28;20471;-70
2022/06/26 09:47:24;;;;;;;7.78;4.68;;;20.20;72.50;;;;;;5116630;28;20024;-69
2022/06/26 09:49:52;;;;;;;7.63;5.00;;;20.20;72.40;;;;;;5116658;28;20032;-69
2022/06/26 09:52:20;;;;;;;7.03;4.95;;;20.20;71.80;;;;;;5116552;28;20025;-69
2022/06/26 09:54:47;;;;;;;7.55;4.95;;;20.20;72.30;;;;;;5116600;28;20020;-69
2022/06/26 09:57:13;;;;;;;8.30;5.15;;;20.20;71.80;;;;;;5116481;28;20048;-69
2022/06/26 09:59:40;;;;;;;6.45;4.78;;;20.20;71.70;;;;;;5116436;28;20035;-69
2022/06/26 10:07:41;;;;;;;9.25;5.93;;;20.20;72.40;;;;;;5116421;28;20053;-69
2022/06/26 10:10:07;;;;;;;7.65;5.55;;;20.20;71.80;;;;;;5116124;28;20040;-69
2022/06/26 10:12:34;;;;;;;8.45;6.25;;;20.10;72.40;;;;;;5116164;28;20025;-69
2022/06/26 10:15:00;;;;;;;10.00;6.25;;;20.10;72.70;;;;;;5116119;28;20020;-69
2022/06/26 10:17:47;;;;;;;8.07;4.45;;;20.20;72.70;;;;;;5116084;28;20062;-69
2022/06/26 10:20:19;;;;;;;6.65;4.50;;;20.10;70.40;;;;;;5116212;28;20024;-69
2022/06/26 10:22:45;;;;;;;5.72;4.97;;;20.00;70.00;;;;;;5116071;28;20035;-69
2022/06/26 10:25:23;;;;;;;7.38;5.82;;;20.10;70.60;;;;;;5115901;28;20115;-69
2022/06/26 10:27:49;;;;;;;5.57;4.80;;;20.10;70.40;;;;;;5115630;28;20072;-70
2022/06/26 10:30:17;;;;;;;6.35;4.65;;;20.00;71.00;;;;;;5115787;28;20028;-69
2022/06/26 10:32:44;;;;;;;5.70;4.53;;;20.00;71.50;;;;;;5115830;28;20080;-69
2022/06/26 10:35:11;;;;;;;7.75;4.78;;;20.00;71.20;;;;;;5115031;28;20045;-69
2022/06/26 10:37:42;;;;;;;7.10;4.57;;;20.00;71.10;;;;;;5115697;28;20028;-69
2022/06/26 10:43:08;;;;;;;5.30;3.45;;;20.00;72.20;;;;;;5115685;28;20089;-69
2022/06/26 10:45:39;;;;;;;6.88;3.20;;;20.00;71.10;;;;;;5115670;28;20050;-69
2022/06/26 10:48:19;;;;;;;6.18;3.70;;;19.90;71.10;;;;;;5115345;28;20028;-69
2022/06/26 10:51:01;;;;;;;6.13;3.58;;;19.90;72.20;;;;;;5115432;28;20020;-69
2022/06/26 10:53:30;;;;;;;6.00;3.73;;;19.90;72.50;;;;;;5115448;28;20040;-69
2022/06/26 10:56:03;;;;;;;6.00;4.03;;;19.90;72.60;;;;;;5115318;28;20059;-69
2022/06/26 10:58:29;;;;;;;;;;;19.90;72.90;;;;;;5097864;28;20031;-69
2022/06/26 11:00:58;;;;;;;4.88;3.28;;;19.90;73.20;;;;;;5115232;28;19911;-69
2022/06/26 11:03:24;;;;;;;6.78;3.10;;;19.80;73.70;;;;;;5115253;28;20020;-69
2022/06/26 11:06:17;;;;;;;6.00;3.22;;;19.80;73.30;;;;;;5115176;28;20031;-69
2022/06/26 11:08:52;;;;;;;6.35;3.13;;;19.90;74.30;;;;;;5115217;28;20031;-69
2022/06/26 11:11:27;;;;;;;5.75;3.25;;;19.80;72.90;;;;;;5115240;28;20016;-69
2022/06/26 11:13:56;;;;;;;6.25;3.28;;;19.90;74.00;;;;;;5115006;28;20366;-69
2022/06/26 11:16:41;;;;;;;13.30;4.20;;;19.90;73.00;;;;;;5114903;28;20016;-69
2022/06/26 11:19:22;;;;;;;5.07;3.63;;;19.90;72.80;;;;;;5097028;28;20038;-69
2022/06/26 11:21:48;;;;;;;6.70;3.70;;;19.80;73.40;;;;;;5114978;28;20024;-69
2022/06/26 11:24:14;;;;;;;5.40;4.10;;;19.80;74.20;;;;;;5114790;28;20054;-69
2022/06/26 11:26:39;;;;;;;9.38;4.47;;;19.70;74.50;;;;;;5114751;28;20074;-69
2022/06/26 11:29:08;;;;;;;6.60;3.97;;;19.70;75.30;;;;;;5114422;28;20104;-69
2022/06/26 11:31:35;;;;;;;7.80;4.50;;;19.70;75.90;;;;;;5114672;28;20087;-69
2022/06/26 11:34:11;;;;;;;6.82;4.07;;;19.70;75.60;;;;;;5114590;28;20020;-69
2022/06/26 11:36:47;;;;;;;6.53;4.78;;;19.70;75.80;;;;;;5096662;28;20024;-69
2022/06/26 11:39:13;;;;;;;10.10;6.15;;;19.70;76.30;;;;;;5114570;28;20024;-69
2022/06/26 11:41:39;;;;;;;8.70;6.50;;;19.70;76.20;;;;;;5114505;28;20092;-69
2022/06/26 11:44:05;;;;;;;8.77;5.95;;;19.70;75.20;;;;;;5114549;28;20460;-69
2022/06/26 11:46:32;;;;;;;7.78;5.55;;;19.70;75.20;;;;;;5095439;28;20028;-69
2022/06/26 11:48:58;;;;;;;9.13;5.50;;;19.80;74.90;;;;;;5114468;28;20039;-69
2022/06/26 11:51:23;;;;;;;8.23;5.32;;;19.80;73.10;;;;;;5114263;28;20036;-69
2022/06/26 11:53:51;;;;;;;7.50;5.38;;;19.80;74.40;;;;;;5114346;28;20046;-69
2022/06/26 11:56:19;;;;;;;6.65;4.63;;;19.70;74.90;;;;;;5114231;28;20020;-69
2022/06/26 11:58:47;;;;;;;6.78;4.53;;;19.70;75.00;;;;;;5114117;28;20073;-69
2022/06/26 12:01:15;;;;;;;8.23;4.85;;;19.70;73.70;;;;;;5096222;28;20047;-69
2022/06/26 12:03:43;;;;;;;10.95;5.47;;;19.70;73.40;;;;;;5114086;28;20046;-69
2022/06/26 12:06:10;;;;;;;11.98;5.72;;;19.60;74.10;;;;;;5114032;28;20043;-69
2022/06/26 12:08:36;;;;;;;6.90;4.95;;;19.70;74.50;;;;;;5113953;28;20016;-69
2022/06/26 12:11:03;;;;;;;7.80;4.82;;;19.60;74.80;;;;;;5113944;28;20054;-69
2022/06/26 12:13:31;;;;;;;8.15;4.55;;;19.60;75.10;;;;;;5113900;28;20080;-69
2022/06/26 12:16:05;;;;;;;8.85;4.80;;;19.60;75.10;;;;;;5113883;28;20031;-69
2022/06/26 12:18:33;;;;;;;8.77;5.07;;;19.50;75.60;;;;;;5113865;28;20515;-69
2022/06/26 12:20:59;;;;;;;8.13;4.85;;;19.50;76.50;;;;;;5113820;28;20024;-69
2022/06/26 12:23:39;;;;;;;9.18;4.70;;;19.50;75.60;;;;;;5113453;28;20067;-69
2022/06/26 12:26:12;;;;;;;6.65;4.28;;;19.50;74.70;;;;;;5113772;28;20024;-69
2022/06/26 12:28:54;;;;;;;5.82;3.40;;;19.50;75.30;;;;;;5113263;28;20044;-69
2022/06/26 12:31:21;;;;;;;7.18;3.30;;;19.50;73.80;;;;;;5113716;28;20020;-69
2022/06/26 12:33:48;;;;;;;6.95;3.03;;;19.50;73.70;;;;;;5113625;28;20016;-69
2022/06/26 12:36:15;;;;;;;7.47;3.67;;;19.40;73.70;;;;;;5113633;28;20043;-69
2022/06/26 12:38:42;;;;;;;8.93;3.65;;;19.30;74.20;;;;;;5113704;28;20024;-69
2022/06/26 12:41:16;;;;;;;6.82;3.63;;;19.40;74.80;;;;;;5113566;28;20017;-69
2022/06/26 12:43:44;;;;;;;6.80;4.07;;;19.40;75.20;;;;;;5113725;28;20470;-69
2022/06/26 12:46:10;;;;;;;9.50;4.18;;;19.40;74.80;;;;;;5113518;28;20166;-69
2022/06/26 12:48:35;;;;;;;8.40;4.40;;;19.40;75.10;;;;;;5095673;28;20020;-69
2022/06/26 12:51:01;;;;;;;6.55;4.47;;;19.50;75.70;;;;;;5113411;28;20032;-66
2022/06/26 12:53:27;;;;;;;7.95;4.85;;;19.50;76.50;;;;;;5113400;28;20027;-67